createdAt,value
2022-12-06T00:00:01.268Z,1.10
2022-12-06T00:10:01.558Z,1.10
2022-12-06T00:20:01.536Z,1.20
2022-12-06T00:30:00.413Z,1.10
2022-12-06T00:40:02.288Z,1.10
2022-12-06T00:50:00.405Z,1.10
2022-12-06T01:00:01.540Z,1.00
2022-12-06T01:10:01.659Z,1.20
2022-12-06T01:20:01.846Z,1.20
2022-12-06T01:30:00.435Z,1.20
2022-12-06T01:40:01.923Z,1.00
2022-12-06T01:50:01.469Z,1.30
2022-12-06T02:00:01.451Z,1.10
2022-12-06T02:10:01.343Z,1.40
2022-12-06T02:20:01.391Z,1.40
2022-12-06T02:30:01.740Z,1.40
2022-12-06T02:40:02.766Z,1.40
2022-12-06T02:50:02.268Z,1.10
2022-12-06T03:00:02.059Z,1.20
2022-12-06T03:10:01.682Z,1.00
2022-12-06T03:20:01.452Z,1.10
2022-12-06T03:30:01.641Z,1.40
2022-12-06T03:40:01.597Z,1.10
2022-12-06T03:50:01.570Z,1.40
2022-12-06T04:00:01.453Z,1.00
2022-12-06T04:10:01.382Z,1.10
2022-12-06T04:20:01.471Z,1.00
2022-12-06T04:30:01.386Z,1.10
2022-12-06T04:40:00.536Z,1.10
2022-12-06T04:50:01.525Z,1.00
2022-12-06T05:00:01.379Z,1.10
2022-12-06T05:10:01.170Z,1.00
2022-12-06T05:20:02.428Z,1.10
2022-12-06T05:30:01.784Z,1.00
2022-12-06T05:40:02.127Z,1.00
2022-12-06T05:50:00.476Z,1.00
2022-12-06T06:00:01.273Z,1.00
2022-12-06T06:10:01.264Z,1.10
2022-12-06T06:20:01.491Z,1.00
2022-12-06T06:30:01.586Z,1.00
2022-12-06T06:40:00.464Z,1.00
2022-12-06T06:50:00.450Z,1.10
2022-12-06T07:00:01.618Z,1.40
2022-12-06T07:10:00.346Z,1.10
2022-12-06T07:20:02.853Z,1.10
2022-12-06T07:30:00.459Z,1.00
2022-12-06T07:40:01.718Z,1.10
2022-12-06T07:50:01.615Z,1.30
2022-12-06T08:00:01.363Z,1.20
2022-12-06T08:10:01.467Z,1.30
2022-12-06T08:20:02.042Z,1.10
2022-12-06T08:30:01.760Z,1.00
2022-12-06T08:40:01.233Z,1.10
2022-12-06T08:50:01.729Z,8.10
2022-12-06T09:00:01.670Z,8.40
2022-12-06T09:10:01.598Z,7.50
2022-12-06T09:20:05.741Z,6.70
2022-12-06T09:30:02.277Z,7.00
2022-12-06T09:40:00.489Z,6.60
2022-12-06T09:50:03.434Z,7.30
2022-12-06T10:00:01.522Z,6.10
2022-12-06T10:10:00.582Z,5.60
2022-12-06T10:20:00.541Z,6.10
2022-12-06T10:30:01.454Z,8.80
2022-12-06T10:40:01.511Z,5.80
2022-12-06T10:50:01.313Z,8.70
2022-12-06T11:00:03.583Z,5.10
2022-12-06T11:10:01.981Z,8.40
2022-12-06T11:20:01.854Z,5.70
2022-12-06T11:30:00.593Z,11.70
2022-12-06T11:40:03.509Z,10.80
2022-12-06T11:50:06.220Z,10.30
2022-12-06T12:00:01.287Z,15.00
2022-12-06T12:10:01.104Z,12.90
2022-12-06T12:20:01.456Z,12.10
2022-12-06T12:30:01.563Z,9.00
2022-12-06T12:40:03.732Z,8.10
2022-12-06T12:50:01.770Z,6.70
2022-12-06T13:00:01.354Z,9.20
2022-12-06T13:10:00.130Z,5.70
2022-12-06T13:20:03.081Z,5.30
2022-12-06T13:30:03.776Z,7.80
2022-12-06T13:40:01.639Z,5.90
2022-12-06T13:50:01.629Z,6.00
2022-12-06T14:00:05.285Z,7.20
2022-12-06T14:10:01.816Z,6.80
2022-12-06T14:20:01.656Z,6.50
2022-12-06T14:30:00.346Z,7.60
2022-12-06T14:40:16.633Z,8.40
2022-12-06T14:50:03.223Z,8.70
2022-12-06T15:00:20.653Z,9.30
2022-12-06T15:10:02.472Z,9.10
2022-12-06T15:20:01.923Z,10.20
2022-12-06T15:30:02.462Z,6.60
2022-12-06T15:40:02.596Z,10.30
2022-12-06T15:50:05.052Z,8.20
2022-12-06T16:00:01.297Z,6.40
2022-12-06T16:10:02.121Z,8.90
2022-12-06T16:20:01.531Z,7.30
2022-12-06T16:30:01.302Z,6.70
2022-12-06T16:40:01.268Z,7.70
2022-12-06T16:50:01.086Z,9.70
2022-12-06T17:00:01.600Z,6.50
2022-12-06T17:10:01.601Z,13.90
2022-12-06T17:20:01.300Z,8.60
2022-12-06T17:30:01.535Z,1.50
2022-12-06T17:40:01.030Z,1.00
2022-12-06T17:50:02.336Z,1.20
2022-12-06T18:00:01.263Z,1.10
2022-12-06T18:10:01.920Z,1.20
2022-12-06T18:20:01.569Z,1.20
2022-12-06T18:30:02.040Z,1.10
2022-12-06T18:40:01.731Z,1.10
2022-12-06T18:50:01.445Z,1.30
2022-12-06T19:00:01.609Z,1.20
2022-12-06T19:10:01.562Z,1.20
2022-12-06T19:20:02.107Z,1.20
2022-12-06T19:30:01.371Z,1.20
2022-12-06T19:40:01.392Z,1.10
2022-12-06T19:50:01.253Z,1.10
2022-12-06T20:00:01.788Z,1.30
2022-12-06T20:10:01.538Z,1.20
2022-12-06T20:20:01.643Z,1.10
2022-12-06T20:30:01.863Z,1.20
2022-12-06T20:40:03.141Z,1.20
2022-12-06T20:50:01.932Z,1.10
2022-12-06T21:00:07.195Z,1.20
2022-12-06T21:10:01.793Z,1.00
2022-12-06T21:20:01.563Z,1.00
2022-12-06T21:30:01.388Z,1.10
2022-12-06T21:40:01.499Z,1.10
2022-12-06T21:50:03.147Z,1.10
2022-12-06T22:00:01.734Z,1.20
2022-12-06T22:10:01.608Z,1.10
2022-12-06T22:20:01.485Z,1.10
2022-12-06T22:30:00.461Z,1.20
2022-12-06T22:40:01.870Z,1.20
2022-12-06T22:50:01.229Z,1.10
2022-12-06T23:00:01.303Z,1.10
2022-12-06T23:10:00.469Z,1.10
2022-12-06T23:20:01.966Z,1.00
2022-12-06T23:30:03.739Z,1.10
2022-12-06T23:40:03.470Z,1.10
2022-12-06T23:50:01.280Z,1.40
